Time;durP1;ratioP1;P1;durP2;ratioP2;P2;SDS_P1;SDS_P2;PMS_P1;PMS_P2;Temp;Humidity;BMP_temperature;BMP_pressure;BME280_temperature;BME280_humidity;BME280_pressure;Samples;Min_cycle;Max_cycle;Signal;HPM_P1;HPM_P2
2023/12/24 00:00:53;;;;;;;5.77;3.30;;;;;;;9.47;70.14;96023.16;4947995;28;20229;-72
2023/12/24 00:04:13;;;;;;;4.50;2.80;;;;;;;9.60;70.18;96019.78;4948375;28;20201;-72
2023/12/24 00:07:34;;;;;;;2.40;2.20;;;;;;;9.51;70.33;96038.41;4948125;28;20680;-73
2023/12/24 00:10:56;;;;;;;4.87;3.03;;;;;;;9.61;69.97;96024.03;4947315;28;20225;-73
2023/12/24 00:14:16;;;;;;;3.83;3.03;;;;;;;9.64;69.41;96046.28;4947764;28;20215;-73
2023/12/24 00:17:37;;;;;;;3.07;2.57;;;;;;;9.79;68.69;96035.88;4947986;28;20231;-77
2023/12/24 00:20:58;;;;;;;3.23;2.93;;;;;;;9.75;68.91;96039.56;4947667;28;20219;-75
2023/12/24 00:24:18;;;;;;;3.37;2.60;;;;;;;9.85;67.79;96050.19;4978175;28;20209;-77
2023/12/24 00:27:39;;;;;;;2.97;2.67;;;;;;;9.94;67.35;96059.16;4947850;28;20202;-77
2023/12/24 00:31:00;;;;;;;3.43;2.60;;;;;;;10.04;66.66;96062.88;4977714;28;20196;-74
2023/12/24 00:34:21;;;;;;;3.60;2.50;;;;;;;10.10;66.43;96076.31;4947708;28;20197;-75
2023/12/24 00:37:42;;;;;;;2.63;2.20;;;;;;;10.16;65.26;96068.19;4947850;28;20189;-77
2023/12/24 00:41:03;;;;;;;4.13;2.70;;;;;;;10.33;64.15;96073.19;4947448;28;20189;-75
2023/12/24 00:44:24;;;;;;;6.13;2.93;;;;;;;10.30;64.65;96080.31;4947107;28;20224;-73
2023/12/24 00:47:44;;;;;;;5.10;3.53;;;;;;;10.28;65.03;96087.34;4947510;28;20202;-76
2023/12/24 00:51:05;;;;;;;3.37;2.60;;;;;;;10.34;64.10;96086.97;4946020;29;20190;-75
2023/12/24 00:54:26;;;;;;;2.70;2.10;;;;;;;10.41;64.35;96090.84;4950254;28;20288;-74
2023/12/24 00:57:46;;;;;;;2.67;2.47;;;;;;;10.08;63.25;96038.47;4948716;28;20205;-79
2023/12/24 01:01:07;;;;;;;3.80;2.67;;;;;;;10.48;62.55;96084.38;4947332;28;20233;-75
2023/12/24 01:04:28;;;;;;;3.80;3.23;;;;;;;10.62;62.18;96090.38;4946526;28;20197;-73
2023/12/24 01:07:48;;;;;;;2.70;2.10;;;;;;;10.77;60.52;96087.78;4945751;28;20191;-75
2023/12/24 01:11:09;;;;;;;3.73;2.67;;;;;;;10.77;59.80;96103.31;4929065;28;20681;-74
2023/12/24 01:14:30;;;;;;;2.20;2.00;;;;;;;10.82;58.58;96093.50;4977686;28;20189;-73
2023/12/24 01:17:50;;;;;;;4.03;2.40;;;;;;;10.89;58.75;96102.56;4947281;28;20196;-72
2023/12/24 01:21:11;;;;;;;2.27;2.03;;;;;;;10.87;58.24;96089.69;4947871;28;20207;-75
2023/12/24 01:24:32;;;;;;;2.23;2.00;;;;;;;10.84;59.25;96091.66;4983780;28;20193;-77
2023/12/24 01:27:53;;;;;;;2.33;2.13;;;;;;;10.91;58.38;96101.53;4951565;28;20816;-77
2023/12/24 01:31:14;;;;;;;2.93;2.20;;;;;;;10.86;58.41;96103.56;4965227;28;20232;-73
2023/12/24 01:34:35;;;;;;;2.23;2.03;;;;;;;10.95;58.33;96121.13;4950855;28;20191;-73
2023/12/24 01:37:56;;;;;;;2.53;2.20;;;;;;;10.90;58.16;96132.72;4981181;28;20240;-74
2023/12/24 01:41:17;;;;;;;2.37;2.17;;;;;;;10.91;58.09;96130.03;4948851;29;20197;-76
2023/12/24 01:44:37;;;;;;;2.47;2.27;;;;;;;10.96;57.63;96120.22;4948827;28;20197;-72
2023/12/24 01:47:58;;;;;;;2.40;2.20;;;;;;;10.84;58.17;96120.97;4950525;28;20736;-75
2023/12/24 01:51:19;;;;;;;2.43;2.23;;;;;;;10.96;56.98;96121.97;4964464;28;20202;-72
2023/12/24 01:54:41;;;;;;;2.60;1.70;;;;;;;10.93;57.09;96141.13;4950936;28;20192;-74
2023/12/24 01:58:03;;;;;;;2.20;2.00;;;;;;;11.05;55.33;96145.53;4950572;28;20273;-78
2023/12/24 02:01:24;;;;;;;2.10;1.90;;;;;;;11.12;55.01;96161.56;4980531;28;20233;-77
2023/12/24 02:04:44;;;;;;;3.63;2.10;;;;;;;11.11;54.91;96155.53;4966345;28;20347;-73
2023/12/24 02:08:05;;;;;;;2.17;1.87;;;;;;;11.06;55.29;96138.63;4948491;28;20200;-76
2023/12/24 02:11:26;;;;;;;3.53;2.20;;;;;;;11.07;53.46;96151.47;4949992;28;20628;-76
2023/12/24 02:14:46;;;;;;;1.90;1.70;;;;;;;11.11;53.31;96134.81;4948472;29;20197;-76
2023/12/24 02:18:12;;;;;;;2.33;2.07;;;;;;;11.25;51.82;96142.53;4949030;28;20200;-73
2023/12/24 02:21:53;;;;;;;3.33;2.60;;;;;;;11.24;51.99;96153.84;4972074;28;20685;-73
2023/12/24 02:25:13;;;;;;;2.00;1.80;;;;;;;11.24;52.64;96176.34;4948443;29;20731;-77
2023/12/24 02:28:37;;;;;;;2.13;1.90;;;;;;;11.13;52.79;96151.09;4948030;28;20190;-76
2023/12/24 02:31:59;;;;;;;1.80;1.70;;;;;;;11.10;52.80;96171.19;4948163;29;20759;-77
2023/12/24 02:35:21;;;;;;;2.40;2.20;;;;;;;11.15;51.68;96162.19;4949850;28;20217;-73
2023/12/24 02:38:42;;;;;;;1.80;1.70;;;;;;;11.27;51.42;96166.59;4950047;28;20206;-75
2023/12/24 02:42:04;;;;;;;2.20;2.00;;;;;;;11.20;51.29;96201.63;4949656;28;20195;-74
2023/12/24 02:45:24;;;;;;;2.23;2.03;;;;;;;11.22;51.79;96210.13;4961810;28;20284;-76
2023/12/24 02:48:45;;;;;;;4.63;3.43;;;;;;;11.00;52.73;96178.69;4949638;28;20280;-77
2023/12/24 02:52:06;;;;;;;2.37;2.10;;;;;;;11.16;52.38;96197.56;4949620;28;20279;-74
2023/12/24 02:55:27;;;;;;;3.67;2.90;;;;;;;11.16;52.91;96214.84;4947583;28;20194;-76
2023/12/24 02:58:48;;;;;;;2.27;2.07;;;;;;;11.12;53.15;96205.59;4949347;28;20245;-74
2023/12/24 03:02:08;;;;;;;2.43;2.00;;;;;;;11.04;54.12;96216.44;4947352;29;20315;-74
2023/12/24 03:05:29;;;;;;;3.37;2.57;;;;;;;10.98;54.26;96206.44;4949390;28;20222;-77
2023/12/24 03:08:50;;;;;;;3.17;2.10;;;;;;;10.97;54.94;96219.47;4947070;29;20204;-77
2023/12/24 03:12:10;;;;;;;2.20;2.00;;;;;;;10.92;55.07;96240.47;4947288;28;20712;-74
2023/12/24 03:15:31;;;;;;;2.20;2.00;;;;;;;10.90;55.34;96223.38;4949081;28;20206;-76
2023/12/24 03:18:52;;;;;;;2.00;1.80;;;;;;;10.93;55.19;96236.97;4949211;28;20688;-75
2023/12/24 03:22:14;;;;;;;2.10;1.90;;;;;;;10.97;55.74;96235.03;4979540;28;20189;-74
2023/12/24 03:25:36;;;;;;;2.30;2.10;;;;;;;10.89;55.57;96238.09;4949584;28;20727;-73
2023/12/24 03:28:57;;;;;;;2.97;2.60;;;;;;;10.92;55.66;96227.53;4959935;28;20232;-73
2023/12/24 03:32:19;;;;;;;2.67;2.43;;;;;;;10.81;56.11;96244.63;4990586;28;20203;-72
2023/12/24 03:35:40;;;;;;;2.43;2.07;;;;;;;10.76;55.55;96241.50;4960275;28;20193;-76
2023/12/24 03:39:02;;;;;;;2.57;2.33;;;;;;;10.77;55.42;96249.16;4948993;28;20197;-73
2023/12/24 03:42:22;;;;;;;2.53;2.17;;;;;;;10.73;55.41;96263.22;4949192;28;20195;-76
2023/12/24 03:45:43;;;;;;;2.53;2.10;;;;;;;10.77;55.08;96259.53;4947890;28;20206;-74
2023/12/24 03:49:04;;;;;;;3.23;2.23;;;;;;;10.93;53.34;96254.25;4948610;28;20229;-74
2023/12/24 03:52:25;;;;;;;4.47;2.53;;;;;;;10.94;54.20;96243.81;4946936;29;20284;-76
2023/12/24 03:55:46;;;;;;;2.80;2.37;;;;;;;10.93;53.49;96249.91;4950353;28;20201;-76
2023/12/24 03:59:06;;;;;;;2.57;2.20;;;;;;;10.98;54.57;96262.59;4947392;29;20197;-77
2023/12/24 04:02:28;;;;;;;2.80;2.17;;;;;;;10.93;54.81;96265.47;4950745;28;20567;-77
2023/12/24 04:05:49;;;;;;;3.73;2.40;;;;;;;11.00;53.76;96277.13;4979244;28;20206;-77
2023/12/24 04:09:10;;;;;;;3.60;2.40;;;;;;;11.00;53.35;96250.41;4949292;28;20366;-76
2023/12/24 04:12:35;;;;;;;3.90;2.67;;;;;;;10.99;53.90;96275.47;4949302;28;20554;-75
2023/12/24 04:15:57;;;;;;;3.53;2.50;;;;;;;10.87;54.72;96290.88;4946917;28;20221;-77
2023/12/24 04:19:17;;;;;;;4.47;3.10;;;;;;;10.97;54.75;96269.53;4947239;28;20190;-78
2023/12/24 04:22:38;;;;;;;4.03;2.53;;;;;;;11.00;54.78;96300.47;4947747;28;20204;-73
2023/12/24 04:25:59;;;;;;;2.10;1.90;;;;;;;10.85;54.91;96293.59;4979031;28;20534;-76
2023/12/24 04:29:21;;;;;;;2.23;2.03;;;;;;;10.88;54.32;96283.03;4977948;28;20222;-75
2023/12/24 04:32:42;;;;;;;2.20;2.00;;;;;;;11.00;53.74;96297.88;4946765;28;20257;-79
2023/12/24 04:36:04;;;;;;;4.23;2.43;;;;;;;11.04;53.41;96308.88;4947652;28;20185;-78
2023/12/24 04:39:24;;;;;;;2.47;2.17;;;;;;;11.08;52.73;96306.00;4945862;28;20285;-77
2023/12/24 04:42:45;;;;;;;2.33;2.07;;;;;;;11.05;52.41;96337.28;4978017;28;20432;-76
2023/12/24 04:46:07;;;;;;;2.17;1.97;;;;;;;11.16;52.83;96340.06;4945936;28;20198;-73
2023/12/24 04:49:29;;;;;;;2.03;1.83;;;;;;;11.02;53.05;96332.28;4945716;29;20249;-75
2023/12/24 04:52:50;;;;;;;2.17;1.97;;;;;;;11.04;53.25;96330.44;4977504;28;20229;-74
2023/12/24 04:56:11;;;;;;;3.57;2.23;;;;;;;11.03;53.16;96340.88;4947221;28;20200;-73
2023/12/24 04:59:32;;;;;;;1.90;1.80;;;;;;;11.09;53.44;96343.94;4945487;29;20617;-72
2023/12/24 05:02:52;;;;;;;2.80;2.53;;;;;;;10.97;53.14;96365.38;4945711;29;20201;-75
2023/12/24 05:06:13;;;;;;;2.63;2.00;;;;;;;10.74;52.91;96301.13;4947433;28;20606;-75
2023/12/24 05:09:34;;;;;;;2.13;1.90;;;;;;;10.97;53.21;96367.13;4947245;28;20285;-76
2023/12/24 05:12:55;;;;;;;1.80;1.70;;;;;;;11.04;53.02;96365.88;4945958;29;20230;-76
2023/12/24 05:16:15;;;;;;;3.13;2.23;;;;;;;11.15;53.15;96371.25;4945779;28;20696;-74
2023/12/24 05:19:36;;;;;;;4.37;2.73;;;;;;;10.98;53.66;96384.38;4977516;28;20198;-75
2023/12/24 05:22:57;;;;;;;3.73;2.33;;;;;;;11.05;53.25;96396.03;4947124;28;20195;-74
2023/12/24 05:26:19;;;;;;;2.93;2.23;;;;;;;11.02;53.05;96399.66;4947213;28;20632;-74
2023/12/24 05:29:39;;;;;;;2.50;2.30;;;;;;;11.02;53.58;96420.38;4947589;28;20714;-71
2023/12/24 05:33:00;;;;;;;2.90;2.30;;;;;;;10.89;53.44;96414.22;4947239;28;20308;-72
2023/12/24 05:36:21;;;;;;;5.67;2.53;;;;;;;10.94;53.78;96407.00;4946989;28;20305;-73
2023/12/24 05:39:44;;;;;;;3.07;2.53;;;;;;;10.83;53.68;96400.78;4947429;28;20194;-73
2023/12/24 05:43:05;;;;;;;4.13;2.23;;;;;;;11.05;53.03;96427.13;4947219;28;20198;-74
2023/12/24 05:46:32;;;;;;;4.43;2.27;;;;;;;10.98;53.71;96433.59;4946939;28;20232;-74
2023/12/24 05:49:53;;;;;;;5.10;2.50;;;;;;;11.01;53.09;96436.84;4976975;28;20279;-72
2023/12/24 05:53:13;;;;;;;4.50;2.70;;;;;;;10.91;53.83;96427.91;4946976;28;20250;-73
2023/12/24 05:56:34;;;;;;;2.67;2.40;;;;;;;10.93;53.77;96435.59;4946719;28;20244;-72
2023/12/24 05:59:55;;;;;;;4.60;2.13;;;;;;;11.03;52.55;96437.56;4946574;28;20214;-73
2023/12/24 06:03:21;;;;;;;3.30;2.70;;;;;;;11.07;52.74;96420.09;4946908;28;20192;-72
2023/12/24 06:06:42;;;;;;;2.53;2.33;;;;;;;11.05;52.25;96440.91;4946590;28;20191;-73
2023/12/24 06:10:03;;;;;;;3.27;2.40;;;;;;;11.08;51.65;96435.56;4949902;28;20229;-74
2023/12/24 06:13:25;;;;;;;2.50;2.30;;;;;;;11.26;51.43;96436.25;4976392;28;20569;-71
2023/12/24 06:16:45;;;;;;;5.13;2.50;;;;;;;11.11;51.63;96452.69;4948108;28;20201;-73
2023/12/24 06:20:06;;;;;;;4.20;2.70;;;;;;;11.26;51.44;96446.63;4950233;28;20668;-73
2023/12/24 06:23:27;;;;;;;2.60;2.40;;;;;;;11.46;51.11;96438.50;4950084;28;20222;-75
2023/12/24 06:26:48;;;;;;;3.03;2.57;;;;;;;11.50;50.05;96452.16;4950099;28;20214;-73
2023/12/24 06:30:11;;;;;;;2.33;2.10;;;;;;;11.58;49.30;96455.13;4950000;28;20254;-74
2023/12/24 06:33:32;;;;;;;4.93;2.87;;;;;;;11.54;49.48;96464.00;4948009;28;20225;-72
2023/12/24 06:36:53;;;;;;;2.07;1.90;;;;;;;11.67;49.23;96464.97;4950127;28;20203;-72
2023/12/24 06:40:14;;;;;;;2.30;2.10;;;;;;;11.73;49.68;96474.97;4950379;28;20204;-73
2023/12/24 06:43:35;;;;;;;2.77;2.10;;;;;;;11.71;49.98;96471.63;4949660;28;20275;-73
2023/12/24 06:46:56;;;;;;;2.90;2.27;;;;;;;11.62;50.07;96457.44;4950247;28;20189;-74
2023/12/24 06:50:17;;;;;;;4.20;2.30;;;;;;;11.73;49.73;96475.81;4949617;28;20241;-72
2023/12/24 06:53:41;;;;;;;3.17;1.80;;;;;;;11.90;48.72;96499.00;4949751;28;20219;-75
2023/12/24 06:57:04;;;;;;;3.47;2.70;;;;;;;12.08;48.99;96482.34;4950109;28;20707;-75
2023/12/24 07:00:25;;;;;;;4.50;2.10;;;;;;;12.02;48.54;96507.81;4947918;28;20272;-72
2023/12/24 07:03:46;;;;;;;4.33;2.53;;;;;;;11.97;48.61;96507.28;4949397;28;20214;-73
2023/12/24 07:07:08;;;;;;;3.43;2.57;;;;;;;11.99;48.62;96515.78;4949764;28;20341;-76
2023/12/24 07:10:33;;;;;;;2.93;2.57;;;;;;;11.57;48.61;96454.28;4949803;28;20262;-74
2023/12/24 07:13:54;;;;;;;3.17;2.27;;;;;;;12.00;48.74;96514.84;4949968;28;20189;-75
2023/12/24 07:16:26;;;;;;;2.47;2.10;;;;;;;11.59;48.71;96447.25;4949388;28;20198;-76
2023/12/24 07:18:53;;;;;;;3.43;2.37;;;;;;;11.91;48.76;96525.81;4948041;28;20193;-76
2023/12/24 07:21:21;;;;;;;3.33;2.57;;;;;;;11.86;48.37;96517.44;4949593;28;20220;-74
2023/12/24 07:23:49;;;;;;;2.93;2.47;;;;;;;11.90;48.71;96500.75;4950937;28;20294;-76
2023/12/24 07:26:16;;;;;;;2.73;2.50;;;;;;;12.03;48.91;96517.28;4951536;28;20194;-73
2023/12/24 07:28:44;;;;;;;3.67;2.40;;;;;;;11.93;48.77;96516.16;4948923;28;20233;-78
2023/12/24 07:31:14;;;;;;;2.60;2.40;;;;;;;11.92;48.86;96527.44;4931566;28;20280;-75
2023/12/24 07:33:45;;;;;;;3.80;3.00;;;;;;;11.94;48.75;96530.78;4948359;28;20242;-78
2023/12/24 07:36:13;;;;;;;2.83;2.53;;;;;;;12.02;48.95;96538.94;4947369;29;20216;-76
2023/12/24 07:38:43;;;;;;;3.50;2.77;;;;;;;12.02;48.64;96545.00;4949153;28;20193;-79
2023/12/24 07:41:13;;;;;;;6.70;3.13;;;;;;;12.00;49.13;96546.00;4947157;28;20202;-76
2023/12/24 07:43:40;;;;;;;3.43;2.90;;;;;;;11.96;49.37;96547.94;4947245;28;20612;-76
2023/12/24 07:46:07;;;;;;;2.77;2.50;;;;;;;11.94;49.30;96556.75;4950141;28;20229;-75
2023/12/24 07:48:34;;;;;;;5.37;3.03;;;;;;;11.68;49.21;96500.38;4947663;28;20204;-76
2023/12/24 07:51:02;;;;;;;2.80;2.30;;;;;;;12.05;49.13;96546.56;4948617;28;20327;-73
2023/12/24 07:53:32;;;;;;;3.40;2.70;;;;;;;12.11;49.15;96546.22;4931271;29;20734;-76
2023/12/24 07:55:59;;;;;;;3.97;3.67;;;;;;;12.10;48.61;96552.31;4948893;28;20998;-75
2023/12/24 07:58:27;;;;;;;4.90;2.27;;;;;;;11.97;48.69;96541.00;4948779;28;20241;-75
2023/12/24 08:00:55;;;;;;;4.50;2.40;;;;;;;12.15;48.20;96565.84;4948611;28;20300;-76
2023/12/24 08:03:22;;;;;;;7.50;5.07;;;;;;;12.14;47.83;96552.03;4930705;28;20199;-75
2023/12/24 08:05:52;;;;;;;3.27;2.93;;;;;;;12.16;48.44;96568.34;4978864;28;20198;-74
2023/12/24 08:08:19;;;;;;;2.80;2.50;;;;;;;12.12;48.40;96563.44;4947249;28;20258;-76
2023/12/24 08:10:46;;;;;;;8.10;3.57;;;;;;;12.07;48.86;96555.94;4948407;28;20273;-76
2023/12/24 08:13:15;;;;;;;4.20;3.30;;;;;;;11.99;48.77;96557.31;4948249;28;20196;-74
2023/12/24 08:15:44;;;;;;;3.70;3.23;;;;;;;12.37;48.98;96576.63;4947057;29;20199;-78
2023/12/24 08:18:11;;;;;;;4.20;3.67;;;;;;;12.42;48.50;96579.78;4946863;29;20608;-74
2023/12/24 08:20:38;;;;;;;4.53;3.80;;;;;;;12.30;49.22;96569.31;4979215;28;20596;-74
2023/12/24 08:23:07;;;;;;;4.17;3.60;;;;;;;12.46;48.91;96578.69;4946750;28;20196;-76
2023/12/24 08:25:35;;;;;;;4.43;3.43;;;;;;;12.52;49.00;96590.44;4948093;28;20199;-77
2023/12/24 08:28:03;;;;;;;3.03;2.73;;;;;;;12.56;48.40;96582.38;4946570;28;20201;-76
2023/12/24 08:30:30;;;;;;;5.10;3.53;;;;;;;12.71;48.54;96594.44;4930514;28;20723;-78
2023/12/24 08:32:58;;;;;;;6.73;3.70;;;;;;;12.54;48.90;96589.44;4978404;28;20214;-76
2023/12/24 08:35:26;;;;;;;4.87;3.50;;;;;;;12.61;48.51;96595.09;4946632;28;20615;-73
2023/12/24 08:37:54;;;;;;;3.83;3.07;;;;;;;12.58;48.41;96575.34;4947719;28;20242;-76
2023/12/24 08:40:23;;;;;;;5.03;3.63;;;;;;;12.78;49.41;96595.72;4946115;29;20202;-77
2023/12/24 08:42:50;;;;;;;5.33;4.07;;;;;;;12.86;49.14;96577.88;4946229;29;20662;-73
2023/12/24 08:45:18;;;;;;;3.33;3.00;;;;;;;12.91;48.39;96591.44;4978261;28;20655;-73
2023/12/24 08:47:47;;;;;;;5.07;3.63;;;;;;;13.10;48.02;96567.78;4947726;28;20582;-76
2023/12/24 08:50:16;;;;;;;3.50;2.80;;;;;;;13.01;47.58;96550.09;4946083;28;20697;-75
2023/12/24 08:52:43;;;;;;;3.97;2.90;;;;;;;13.17;47.58;96571.63;4946953;28;20204;-79
2023/12/24 08:55:11;;;;;;;7.03;2.70;;;;;;;13.24;47.17;96569.47;4947312;28;20265;-76
2023/12/24 08:57:42;;;;;;;3.73;2.67;;;;;;;13.28;48.14;96579.59;4947563;28;20613;-74
2023/12/24 09:00:12;;;;;;;3.10;2.80;;;;;;;13.32;48.08;96580.22;4947191;28;20323;-80
2023/12/24 09:02:39;;;;;;;3.83;2.83;;;;;;;13.39;47.53;96568.50;4947558;28;20292;-75
2023/12/24 09:05:08;;;;;;;4.23;2.63;;;;;;;13.14;47.48;96519.00;4947746;28;20286;-76
2023/12/24 09:07:36;;;;;;;3.83;3.33;;;;;;;13.41;47.61;96556.25;4946158;29;20208;-76
2023/12/24 09:10:04;;;;;;;4.93;2.97;;;;;;;13.28;47.70;96514.59;4947201;28;20268;-77
2023/12/24 09:12:33;;;;;;;4.70;3.47;;;;;;;13.51;47.28;96550.34;4947537;28;20206;-74
2023/12/24 09:15:00;;;;;;;3.70;3.00;;;;;;;13.54;46.99;96531.09;4947198;28;20279;-73
2023/12/24 09:17:31;;;;;;;6.60;2.23;;;;;;;13.66;47.00;96519.91;4945837;28;20272;-74
2023/12/24 09:19:59;;;;;;;2.50;2.27;;;;;;;13.71;46.20;96533.41;4947032;28;20663;-72
2023/12/24 09:22:32;;;;;;;2.17;1.97;;;;;;;13.66;46.26;96473.88;4948031;28;20679;-74
2023/12/24 09:25:01;;;;;;;1.80;1.70;;;;;;;13.84;46.22;96526.47;4946902;28;20185;-73
2023/12/24 09:27:29;;;;;;;2.53;2.27;;;;;;;14.07;45.81;96525.75;4947255;28;20204;-73
2023/12/24 09:29:57;;;;;;;2.67;2.30;;;;;;;14.18;44.98;96501.59;4945623;28;20294;-73
2023/12/24 09:32:25;;;;;;;5.50;3.20;;;;;;;14.30;45.14;96506.81;4945879;29;20620;-71
2023/12/24 09:34:56;;;;;;;4.33;3.13;;;;;;;14.26;45.04;96487.09;4946998;28;20627;-73
2023/12/24 09:37:25;;;;;;;7.27;2.90;;;;;;;14.35;44.99;96473.47;4947053;28;20216;-76
2023/12/24 09:39:52;;;;;;;4.63;2.70;;;;;;;14.41;44.96;96500.84;4947353;28;20665;-72
2023/12/24 09:42:21;;;;;;;3.97;3.30;;;;;;;14.45;44.95;96456.25;4945789;28;20193;-77
2023/12/24 09:45:05;;;;;;;5.17;3.13;;;;;;;14.46;45.09;96504.84;4950981;28;20351;-74
2023/12/24 09:47:34;;;;;;;8.33;5.17;;;;;;;14.54;44.47;96494.69;4950777;28;20670;-74
2023/12/24 09:50:03;;;;;;;6.50;3.60;;;;;;;14.41;45.10;96485.22;4949339;28;20217;-74
2023/12/24 09:52:33;;;;;;;4.10;3.30;;;;;;;14.42;44.44;96485.16;4951215;28;20201;-78
2023/12/24 09:55:03;;;;;;;2.90;2.40;;;;;;;14.34;44.32;96471.78;4950710;28;20268;-73
2023/12/24 09:57:31;;;;;;;4.13;2.37;;;;;;;14.24;45.02;96462.91;4951170;28;20299;-75
2023/12/24 10:00:01;;;;;;;4.70;3.43;;;;;;;14.40;44.73;96475.75;4951270;28;20223;-76
2023/12/24 10:02:48;;;;;;;5.30;3.93;;;;;;;14.59;45.01;96484.78;4947924;29;20207;-78
2023/12/24 10:05:16;;;;;;;3.60;3.10;;;;;;;14.62;44.15;96484.56;4931924;29;20229;-73
2023/12/24 10:07:45;;;;;;;5.50;3.30;;;;;;;14.46;44.39;96489.19;4948720;29;20707;-72
2023/12/24 10:10:13;;;;;;;4.00;2.93;;;;;;;14.44;44.08;96495.44;4932222;29;20620;-73
2023/12/24 10:12:42;;;;;;;5.50;2.80;;;;;;;14.31;44.64;96487.66;4948175;29;20204;-78
2023/12/24 10:15:10;;;;;;;3.43;2.73;;;;;;;14.29;44.62;96493.91;4931965;29;20208;-74
2023/12/24 10:17:37;;;;;;;4.00;3.10;;;;;;;14.38;44.44;96483.69;4947778;29;20263;-74
2023/12/24 10:20:08;;;;;;;6.73;4.13;;;;;;;14.08;45.52;96483.16;4947069;29;20205;-73
2023/12/24 10:22:35;;;;;;;5.03;3.30;;;;;;;14.14;45.16;96466.25;4947190;29;20826;-72
2023/12/24 10:25:06;;;;;;;7.43;4.13;;;;;;;14.29;45.37;96486.09;4947361;29;20671;-74
2023/12/24 10:27:35;;;;;;;3.70;3.13;;;;;;;14.20;44.80;96474.50;4916561;29;20284;-73
2023/12/24 10:30:14;;;;;;;7.30;2.67;;;;;;;14.19;44.79;96474.59;4948217;29;20326;-76
2023/12/24 10:32:43;;;;;;;5.40;3.30;;;;;;;14.12;45.45;96466.38;4948567;29;20200;-74
2023/12/24 10:35:11;;;;;;;3.90;2.80;;;;;;;14.19;44.74;96490.22;4950576;28;20189;-74
2023/12/24 10:37:41;;;;;;;4.37;3.00;;;;;;;14.00;45.15;96469.00;4948469;29;20215;-75
2023/12/24 10:40:11;;;;;;;3.90;2.60;;;;;;;13.97;45.06;96488.28;4948537;28;20199;-77
2023/12/24 10:42:40;;;;;;;5.73;3.77;;;;;;;13.92;44.92;96485.13;4949934;28;20202;-73
2023/12/24 10:45:11;;;;;;;3.23;2.60;;;;;;;13.95;44.98;96484.91;4949178;28;20206;-74
2023/12/24 10:47:41;;;;;;;4.77;3.27;;;;;;;13.90;45.51;96471.41;4950002;28;20237;-73
2023/12/24 10:50:09;;;;;;;28.00;13.77;;;;;;;13.95;44.96;96490.13;4949386;28;20234;-77
2023/12/24 10:52:37;;;;;;;9.20;6.30;;;;;;;14.14;45.29;96481.88;4949141;28;20759;-72
2023/12/24 10:55:06;;;;;;;7.27;4.73;;;;;;;14.04;45.50;96480.84;4948957;28;20212;-74
2023/12/24 10:57:58;;;;;;;7.33;4.40;;;;;;;14.11;45.80;96488.16;4949434;28;20197;-76
2023/12/24 11:00:28;;;;;;;6.43;3.90;;;;;;;14.22;45.05;96488.25;4947993;28;20741;-75
2023/12/24 11:02:55;;;;;;;6.10;3.80;;;;;;;14.27;45.28;96483.56;4948401;29;20600;-74
2023/12/24 11:05:46;;;;;;;4.27;3.57;;;;;;;14.44;45.16;96485.88;4980607;28;20688;-77
2023/12/24 11:08:23;;;;;;;5.63;3.57;;;;;;;14.28;45.11;96487.84;4949665;28;20197;-76
2023/12/24 11:11:03;;;;;;;7.17;3.93;;;;;;;14.30;45.36;96491.19;4964167;28;20303;-73
2023/12/24 11:13:32;;;;;;;4.50;2.50;;;;;;;14.30;44.75;96491.19;4949622;28;20268;-77
2023/12/24 11:16:06;;;;;;;5.87;3.93;;;;;;;14.26;45.19;96504.50;4949432;28;20212;-76
2023/12/24 11:18:46;;;;;;;5.37;2.90;;;;;;;14.16;45.16;96498.25;4947832;29;20233;-74
2023/12/24 11:21:19;;;;;;;4.70;3.17;;;;;;;13.84;44.80;96431.00;4950172;28;20193;-76
2023/12/24 11:24:08;;;;;;;3.40;2.50;;;;;;;14.18;44.89;96502.41;4947783;28;20189;-74
2023/12/24 11:26:36;;;;;;;6.50;3.90;;;;;;;14.28;45.17;96508.69;4949292;28;20199;-73
2023/12/24 11:29:38;;;;;;;11.27;4.93;;;;;;;14.44;45.32;96501.50;4949223;28;20196;-74
2023/12/24 11:32:24;;;;;;;4.53;3.13;;;;;;;14.45;45.08;96500.53;4947890;28;20315;-74
2023/12/24 11:34:58;;;;;;;6.67;3.17;;;;;;;14.55;45.21;96504.16;4949643;28;20778;-76
2023/12/24 11:37:38;;;;;;;4.37;2.63;;;;;;;14.61;45.19;96508.94;4948092;28;20212;-76
2023/12/24 11:40:15;;;;;;;6.23;3.73;;;;;;;14.61;45.61;96506.34;4964027;28;20203;-75
2023/12/24 11:42:46;;;;;;;4.97;3.17;;;;;;;14.66;45.04;96506.03;4949378;28;20216;-76
2023/12/24 11:45:31;;;;;;;7.13;3.47;;;;;;;14.23;45.10;96448.25;4949428;28;20301;-76
2023/12/24 11:48:16;;;;;;;8.47;4.33;;;;;;;14.61;45.52;96506.34;4947154;28;20672;-76
2023/12/24 11:50:44;;;;;;;5.60;3.63;;;;;;;14.32;45.76;96450.22;4949097;28;20712;-76
2023/12/24 11:53:11;;;;;;;4.60;3.60;;;;;;;14.61;45.93;96511.56;4932121;28;20209;-74
2023/12/24 11:55:38;;;;;;;3.40;2.90;;;;;;;14.68;46.02;96518.03;4949285;28;20194;-76
2023/12/24 11:58:08;;;;;;;4.43;3.17;;;;;;;14.62;45.31;96512.41;4947783;29;20642;-78
2023/12/24 12:00:36;;;;;;;3.60;3.10;;;;;;;14.60;45.38;96517.72;4948990;28;20247;-77
2023/12/24 12:03:06;;;;;;;3.43;2.97;;;;;;;14.63;45.46;96514.09;4949166;28;20258;-78
2023/12/24 12:05:36;;;;;;;3.47;2.60;;;;;;;14.60;45.60;96504.69;4948192;28;20220;-78
2023/12/24 12:08:03;;;;;;;5.50;3.90;;;;;;;14.64;45.92;96519.19;4948989;28;20220;-78
2023/12/24 12:10:30;;;;;;;5.40;3.63;;;;;;;14.73;45.42;96525.53;4948897;28;20747;-77
2023/12/24 12:13:00;;;;;;;4.33;3.37;;;;;;;14.45;45.52;96479.69;4947422;28;20204;-74
2023/12/24 12:15:29;;;;;;;5.17;3.40;;;;;;;14.56;45.74;96531.06;4948523;28;20685;-76
2023/12/24 12:17:56;;;;;;;5.50;3.20;;;;;;;14.51;45.79;96520.97;4962993;28;20205;-78
2023/12/24 12:20:25;;;;;;;5.83;3.57;;;;;;;14.58;45.91;96524.81;4931474;28;20270;-74
2023/12/24 12:22:53;;;;;;;3.50;2.30;;;;;;;14.66;45.80;96525.13;4948387;28;20224;-77
2023/12/24 12:25:20;;;;;;;4.00;3.03;;;;;;;14.60;46.08;96515.13;4948411;28;20204;-78
2023/12/24 12:27:48;;;;;;;4.20;3.30;;;;;;;14.43;45.76;96523.28;4978926;28;20196;-78
2023/12/24 12:30:19;;;;;;;3.30;3.00;;;;;;;14.56;45.46;96524.09;4947046;29;20221;-77
2023/12/24 12:32:46;;;;;;;4.30;2.70;;;;;;;14.57;45.46;96524.91;4946605;28;20201;-76
2023/12/24 12:35:15;;;;;;;5.97;2.90;;;;;;;14.43;45.81;96519.81;4948177;28;20619;-76
2023/12/24 12:37:45;;;;;;;3.97;2.53;;;;;;;14.43;46.12;96512.00;4948080;28;20219;-72
2023/12/24 12:40:14;;;;;;;2.77;2.43;;;;;;;14.42;46.10;96506.00;4948384;28;20336;-75
2023/12/24 12:42:42;;;;;;;3.23;2.70;;;;;;;14.54;46.32;96531.19;4946724;28;20283;-73
2023/12/24 12:45:11;;;;;;;5.73;3.43;;;;;;;14.41;46.28;96509.50;4947823;28;20668;-73
2023/12/24 12:47:41;;;;;;;8.27;3.77;;;;;;;14.56;46.16;96531.06;4947614;28;20193;-77
2023/12/24 12:50:09;;;;;;;7.83;4.07;;;;;;;14.59;46.03;96528.22;4946313;29;20293;-72
2023/12/24 12:52:38;;;;;;;4.17;3.07;;;;;;;14.46;46.76;96528.28;4948067;28;20267;-73
2023/12/24 12:55:08;;;;;;;3.90;2.83;;;;;;;14.50;46.91;96555.78;4978529;28;20218;-76
2023/12/24 12:57:41;;;;;;;4.97;3.67;;;;;;;14.47;47.12;96542.13;4978890;28;20281;-74
2023/12/24 13:00:13;;;;;;;3.40;2.23;;;;;;;14.52;46.22;96545.25;4947712;28;20240;-73
2023/12/24 13:02:42;;;;;;;7.63;3.93;;;;;;;14.35;45.80;96514.31;4947702;28;20204;-75
2023/12/24 13:05:26;;;;;;;3.30;2.70;;;;;;;14.60;46.35;96540.34;4947865;28;20616;-72
2023/12/24 13:07:56;;;;;;;5.70;3.47;;;;;;;14.56;46.70;96544.09;4947401;28;20680;-75
2023/12/24 13:10:37;;;;;;;5.77;3.43;;;;;;;14.47;46.48;96529.94;4947622;28;20342;-75
2023/12/24 13:13:23;;;;;;;4.67;3.30;;;;;;;14.46;46.35;96523.06;4947047;28;20189;-73
2023/12/24 13:16:06;;;;;;;5.10;3.10;;;;;;;14.56;46.23;96529.31;4978503;28;20700;-73
2023/12/24 13:18:38;;;;;;;5.47;3.80;;;;;;;14.56;46.44;96547.53;4950852;28;20209;-75
2023/12/24 13:21:08;;;;;;;6.37;3.47;;;;;;;14.60;46.38;96549.00;4951848;28;20222;-73
2023/12/24 13:23:35;;;;;;;4.07;2.93;;;;;;;14.64;46.35;96555.66;4934981;28;20221;-74
2023/12/24 13:26:03;;;;;;;7.70;3.80;;;;;;;14.64;46.29;96537.41;4951557;28;20639;-75
2023/12/24 13:28:31;;;;;;;5.33;3.30;;;;;;;14.63;46.14;96530.53;4951451;28;20612;-75
2023/12/24 13:31:03;;;;;;;9.17;4.43;;;;;;;14.69;46.62;96535.31;4949684;28;20285;-73
2023/12/24 13:33:30;;;;;;;5.57;4.00;;;;;;;14.80;46.63;96547.59;4982065;28;20643;-73
2023/12/24 13:36:01;;;;;;;10.00;4.20;;;;;;;14.89;46.44;96556.53;4949635;28;20193;-73
2023/12/24 13:38:28;;;;;;;8.17;4.10;;;;;;;14.37;47.28;96492.44;4951321;28;20231;-73